Burlington, KY

4:36 AM EDT on October 24, 2014 (GMT -0400)
Cincinnati-Northern KY International | Change Station
CLOSE
Current Station
Airport
Location: Covington,
Elevation: 876 ft
Nearby Weather Stations

Elev 876 ft 39.04 °N, 84.67 °W | Updated 44 minutes ago

Mostly Cloudy
Mostly Cloudy
42 °F
Feels Like 42 °F
N
0
Wind Variable Wind from North

Today
High -- | Low -- °F
--% Chance of Precip.
Yesterday
High -- | Low -- °F
Precip. -- in
7:57 AM 6:47 PM
New Moon, 0% visible
Pressure 30.12 in
Visibility 8.0 miles
Clouds Mostly Cloudy 20000 ft
Dew Point 39 °F
Humidity 89%
Rainfall 0.00 in
Snow Depth Not available.
UV 0 out of 12
Pollen .80 out of 12
Air Quality Not available.
Flu Activity Sporadic
METAR KCVG 240752Z 00000KT 8SM BKN200 06/04 A3012 RMK AO2 SLP197 T00560039

More Conditions Fewer Conditions

Pressure 30.12 in
Visibility 8.0 miles
Clouds Mostly Cloudy 20000 ft
Dew Point 39 °F
Humidity 89%
Rainfall 0.00 in
Snow Depth Not available.
UV 0 out of 12
Pollen .80 out of 12
Air Quality Not available.
Flu Activity Sporadic
METAR KCVG 240752Z 00000KT 8SM BKN200 06/04 A3012 RMK AO2 SLP197 T00560039

More Conditions Fewer Conditions

10-Day Weather Forecast

Almanac

Astronomy

Oct. 24, 2014 Rise Set
Actual Time 7:57 AM EDT 6:47 PM EDT
Civil Twilight 7:30 AM EDT 7:14 PM EDT
Nautical Twilight 6:58 AM EDT 7:46 PM EDT
Astronomical Twilight 6:27 AM EDT 8:16 PM EDT
Moon 8:35 AM EDT 7:27 PM EDT
Length of Visible Light 11h 44m
Length of Day
10h 50m
Tomorrow will be 2m 21s shorter.
New Moon, 0% of the Moon is Illuminated
Today
New Moon
Oct 30
First Quarter
Nov 6
Full
Nov 14
Last Quarter
Nov 22
New

Today's Extremes

State Highs State Lows

Community

WunderPhotos

Upload Photos

1,764,511 photos uploaded!

WunderBlogs® & News

Nearby

Snow Depth

Station Depth Elevation
No new snow has been reported.

Earthquake Activity

City Distance Mag. Time & Date
No recent earthquake activity has been reported nearby.
Minimum magnitude displayed is 2.5.

Coastal Water Temperatures

Place Temperature
No Stations Reporting

Nearby Weather Stations